Time;durP1;ratioP1;P1;durP2;ratioP2;P2;SDS_P1;SDS_P2;PMS_P1;PMS_P2;Temp;Humidity;BMP_temperature;BMP_pressure;BME280_temperature;BME280_humidity;BME280_pressure;Samples;Min_cycle;Max_cycle;Signal;HPM_P1;HPM_P2
2021/06/27 00:01:22;;;;;;;11.70;10.60;;;20.10;90.80;;;20.29;80.83;98126.94;5081877;28;20632;-66
2021/06/27 00:04:13;;;;;;;11.63;10.43;;;20.10;90.60;;;20.29;81.63;98124.28;5064167;28;20639;-66
2021/06/27 00:06:42;;;;;;;11.00;9.37;;;20.20;90.40;;;20.33;81.46;98123.81;5061835;28;21262;-66
2021/06/27 00:09:11;;;;;;;11.40;10.30;;;20.20;90.40;;;20.37;80.94;98136.56;5061367;28;20661;-66
2021/06/27 00:11:40;;;;;;;11.33;10.23;;;20.20;90.30;;;20.41;81.88;98137.88;5061135;28;20633;-66
2021/06/27 00:14:10;;;;;;;11.17;10.07;;;20.30;90.20;;;20.39;80.43;98136.41;5061540;28;20638;-66
2021/06/27 00:16:41;;;;;;;10.90;9.80;;;20.30;90.20;;;20.37;80.58;98143.66;5065797;28;20691;-66
2021/06/27 00:19:09;;;;;;;11.23;9.90;;;20.30;90.10;;;20.36;81.11;98139.38;5054706;28;20746;-66
2021/06/27 00:21:38;;;;;;;11.33;10.13;;;20.30;90.20;;;20.34;81.40;98138.69;5067034;28;20679;-66
2021/06/27 00:24:08;;;;;;;11.40;10.20;;;20.20;90.30;;;20.34;80.71;98141.34;5060847;28;21216;-66
2021/06/27 00:26:36;;;;;;;10.67;9.57;;;20.20;90.30;;;20.32;81.54;98136.19;5064378;28;21173;-66
2021/06/27 00:29:05;;;;;;;10.90;9.53;;;20.20;90.30;;;20.31;82.43;98143.50;5062017;28;20675;-66
2021/06/27 00:31:35;;;;;;;10.27;9.37;;;20.20;90.40;;;20.30;82.23;98147.97;5072430;28;20629;-66
2021/06/27 00:34:04;;;;;;;10.67;9.67;;;20.20;90.30;;;20.28;80.99;98143.81;5057620;28;20699;-66
2021/06/27 00:36:33;;;;;;;10.87;9.77;;;20.20;90.40;;;20.25;81.47;98146.78;5063365;28;20721;-66
2021/06/27 00:39:05;;;;;;;10.10;9.20;;;20.20;90.30;;;20.25;82.16;98145.00;5066580;28;20746;-66
2021/06/27 00:41:34;;;;;;;9.80;8.80;;;20.20;90.30;;;20.24;82.53;98153.09;5058338;28;20984;-66
2021/06/27 00:44:02;;;;;;;11.50;9.30;;;20.10;90.30;;;20.23;80.74;98151.44;5049383;28;20633;-66
2021/06/27 00:46:31;;;;;;;11.67;9.73;;;20.10;90.20;;;20.19;80.83;98142.16;5061189;28;21043;-66
2021/06/27 00:49:01;;;;;;;10.50;9.50;;;20.10;90.20;;;20.20;80.50;98146.47;5062131;28;20641;-66
2021/06/27 00:51:30;;;;;;;11.20;9.97;;;20.10;90.10;;;20.19;81.31;98150.94;5062617;28;20635;-66
2021/06/27 00:53:58;;;;;;;11.47;10.37;;;20.10;90.00;;;20.20;82.07;98144.63;5065184;28;20634;-66
2021/06/27 00:56:27;;;;;;;11.20;10.10;;;20.10;90.10;;;20.20;81.63;98139.34;5060701;28;20642;-66
2021/06/27 00:58:56;;;;;;;10.57;9.47;;;20.10;90.00;;;20.23;80.99;98143.50;5064427;28;20690;-66
2021/06/27 01:01:24;;;;;;;12.67;10.67;;;20.10;89.60;;;20.19;80.24;98144.78;5057206;28;20639;-66
2021/06/27 01:03:53;;;;;;;11.93;10.73;;;20.10;89.80;;;20.13;82.47;98148.94;5060764;28;20638;-66
2021/06/27 01:06:23;;;;;;;13.50;12.10;;;20.00;90.30;;;19.97;82.53;98150.72;5055227;28;20664;-66
2021/06/27 01:08:52;;;;;;;12.53;11.23;;;19.90;91.20;;;19.91;82.79;98151.34;5080865;28;20620;-66
2021/06/27 01:11:20;;;;;;;13.73;11.90;;;19.80;91.20;;;19.83;83.37;98150.44;5062615;28;20645;-66
2021/06/27 01:13:49;;;;;;;13.27;11.97;;;19.80;91.50;;;19.70;85.06;98148.25;5063927;28;21068;-66
2021/06/27 01:16:18;;;;;;;15.10;11.43;;;19.60;91.70;;;19.60;83.70;98152.84;5066204;28;21067;-66
2021/06/27 01:18:54;;;;;;;11.60;10.50;;;19.50;91.80;;;19.46;84.51;98144.69;5080864;28;20653;-66
2021/06/27 01:21:25;;;;;;;12.20;10.23;;;19.40;92.10;;;19.48;84.54;98154.13;5064794;28;20628;-66
2021/06/27 01:23:53;;;;;;;12.53;11.07;;;19.40;91.80;;;19.44;85.17;98157.25;5064638;28;20640;-66
2021/06/27 01:26:22;;;;;;;12.73;11.30;;;19.40;92.10;;;19.38;85.67;98156.06;5064285;28;20647;-66
2021/06/27 01:28:50;;;;;;;13.70;11.27;;;19.30;92.80;;;19.36;85.57;98154.53;5080231;28;21206;-66
2021/06/27 01:31:19;;;;;;;14.37;11.57;;;19.30;92.70;;;19.30;85.18;98151.69;5067841;28;21032;-66
2021/06/27 01:33:48;;;;;;;12.70;11.40;;;19.30;92.90;;;19.23;86.54;98151.50;5060820;28;20665;-66
2021/06/27 01:36:17;;;;;;;13.13;11.67;;;19.20;93.00;;;19.20;85.62;98145.69;5062660;28;21268;-66
2021/06/27 01:38:47;;;;;;;12.43;11.00;;;19.20;93.20;;;19.18;86.10;98145.00;5062076;28;20714;-66
2021/06/27 01:41:16;;;;;;;14.50;12.47;;;19.20;93.40;;;19.15;86.87;98154.06;5062013;28;21067;-66
2021/06/27 01:43:45;;;;;;;12.50;11.20;;;19.20;93.40;;;19.10;87.19;98142.31;5077335;28;20739;-66
2021/06/27 01:46:13;;;;;;;12.80;11.40;;;19.10;93.50;;;19.08;87.75;98152.25;5066630;28;20636;-66
2021/06/27 01:48:42;;;;;;;13.20;11.90;;;19.10;93.60;;;19.05;86.71;98161.31;5063541;28;20640;-66
2021/06/27 01:51:11;;;;;;;13.60;12.20;;;19.00;93.60;;;19.01;87.62;98162.59;5061750;28;20640;-66
2021/06/27 01:53:42;;;;;;;14.73;12.63;;;19.00;93.80;;;18.97;88.01;98158.59;5063848;28;20856;-66
2021/06/27 01:56:12;;;;;;;14.00;12.57;;;19.00;93.90;;;18.95;87.32;98152.59;5079073;28;20626;-66
2021/06/27 01:58:43;;;;;;;15.47;11.83;;;19.00;94.00;;;18.92;87.41;98154.72;5060178;28;20631;-66
2021/06/27 02:01:17;;;;;;;13.10;11.53;;;18.90;94.00;;;18.89;88.00;98150.56;5073245;28;20635;-66
2021/06/27 02:03:47;;;;;;;14.03;12.17;;;18.90;94.00;;;18.87;87.29;98156.16;5061265;28;20643;-66
2021/06/27 02:06:16;;;;;;;16.77;12.07;;;18.90;94.00;;;18.85;88.16;98155.50;5064653;28;20675;-66
2021/06/27 02:08:45;;;;;;;12.70;11.47;;;18.80;94.40;;;18.82;87.68;98151.34;5065820;28;20691;-66
2021/06/27 02:11:20;;;;;;;16.70;13.20;;;18.80;94.10;;;18.81;87.66;98146.19;5060814;28;20644;-66
2021/06/27 02:13:51;;;;;;;13.40;12.10;;;18.80;94.20;;;18.79;87.80;98148.19;5057847;28;20704;-66
2021/06/27 02:16:20;;;;;;;13.37;11.53;;;18.80;94.30;;;18.75;87.81;98141.53;5063887;28;20681;-66
2021/06/27 02:18:51;;;;;;;16.93;11.77;;;18.80;94.40;;;18.72;87.71;98140.03;5064908;28;20658;-66
2021/06/27 02:21:24;;;;;;;13.60;12.17;;;18.70;94.40;;;18.70;87.55;98138.53;5063237;28;21045;-65
2021/06/27 02:23:54;;;;;;;16.93;12.53;;;18.70;94.50;;;18.67;88.70;98142.31;5066000;28;20677;-65
2021/06/27 02:26:26;;;;;;;12.97;11.20;;;18.70;94.50;;;18.66;88.81;98145.94;5061186;28;20677;-65
2021/06/27 02:28:57;;;;;;;13.10;11.70;;;18.60;94.70;;;18.65;88.98;98140.81;5060882;28;21165;-65
2021/06/27 02:31:26;;;;;;;13.47;11.80;;;18.70;94.80;;;18.65;89.27;98149.56;5067329;28;20668;-65
2021/06/27 02:33:55;;;;;;;12.50;11.20;;;18.60;94.90;;;18.64;88.92;98150.56;5065636;28;21011;-65
2021/06/27 02:36:24;;;;;;;14.07;12.47;;;18.60;94.80;;;18.62;89.02;98152.50;5065555;28;20654;-65
2021/06/27 02:38:53;;;;;;;12.20;10.90;;;18.60;94.90;;;18.60;88.33;98149.19;5063859;28;20778;-65
2021/06/27 02:41:23;;;;;;;13.53;11.23;;;18.60;95.00;;;18.61;88.93;98150.88;5061263;28;21290;-65
2021/06/27 02:43:52;;;;;;;14.73;12.07;;;18.60;95.10;;;18.60;88.38;98151.00;5074717;28;21178;-65
2021/06/27 02:46:21;;;;;;;14.90;11.20;;;18.60;95.00;;;18.56;89.11;98147.81;5060020;28;20693;-65
2021/06/27 02:48:49;;;;;;;12.93;11.20;;;18.60;95.10;;;18.56;89.02;98137.25;5061782;28;21392;-65
2021/06/27 02:51:19;;;;;;;14.47;11.40;;;18.60;95.10;;;18.54;89.05;98122.56;5073615;28;20628;-65
2021/06/27 02:53:48;;;;;;;15.10;11.77;;;18.50;95.00;;;18.52;88.47;98119.22;5062553;28;20626;-65
2021/06/27 02:56:16;;;;;;;11.70;10.50;;;18.50;95.00;;;18.50;89.07;98108.81;5076921;28;21263;-65
2021/06/27 02:58:48;;;;;;;13.00;11.57;;;18.50;95.10;;;18.46;89.25;98112.75;5060819;28;21262;-65
2021/06/27 03:01:18;;;;;;;12.83;11.30;;;18.40;95.20;;;18.44;88.95;98109.41;5063109;28;20667;-65
2021/06/27 03:03:51;;;;;;;12.23;10.93;;;18.40;95.60;;;18.43;88.82;98110.41;5061476;28;20672;-65
2021/06/27 03:06:20;;;;;;;13.77;12.17;;;18.40;95.30;;;18.41;89.79;98112.34;5062077;28;20651;-65
2021/06/27 03:08:49;;;;;;;12.93;11.10;;;18.40;95.40;;;18.40;89.48;98109.06;5062397;28;20703;-65
2021/06/27 03:11:18;;;;;;;16.33;11.53;;;18.40;95.40;;;18.39;89.55;98112.66;5059012;28;20686;-65
2021/06/27 03:13:48;;;;;;;12.40;11.20;;;18.40;95.40;;;18.35;89.01;98109.50;5061267;28;20667;-65
2021/06/27 03:16:16;;;;;;;12.80;11.50;;;18.40;95.40;;;18.32;89.82;98101.88;5062821;28;20676;-65
2021/06/27 03:18:45;;;;;;;13.90;12.50;;;18.30;95.30;;;18.34;88.67;98099.09;5061528;28;20729;-65
2021/06/27 03:21:13;;;;;;;14.03;12.30;;;18.30;95.40;;;18.30;89.11;98093.28;5061764;28;20750;-65
2021/06/27 03:23:42;;;;;;;11.50;10.20;;;18.30;95.40;;;18.30;89.39;98097.75;5058587;28;20632;-65
2021/06/27 03:26:11;;;;;;;12.80;11.40;;;18.20;95.50;;;18.30;89.65;98089.84;5063550;28;20718;-65
2021/06/27 03:28:40;;;;;;;12.27;11.07;;;18.30;95.60;;;18.30;89.47;98093.28;5067523;28;20740;-65
2021/06/27 03:31:10;;;;;;;13.77;12.30;;;18.30;95.70;;;18.31;89.72;98088.84;5064696;28;21078;-65
2021/06/27 03:33:39;;;;;;;13.53;11.23;;;18.30;95.60;;;18.30;89.97;98090.66;5061799;28;21223;-65
2021/06/27 03:36:07;;;;;;;13.03;11.70;;;18.20;95.70;;;18.31;89.65;98088.84;5059758;28;21223;-65
2021/06/27 03:38:42;;;;;;;12.03;10.80;;;18.20;95.60;;;18.30;89.21;98087.19;5055393;28;20671;-65
2021/06/27 03:41:11;;;;;;;15.83;12.13;;;18.20;95.60;;;18.31;89.25;98084.41;5068176;28;20653;-65
2021/06/27 03:43:40;;;;;;;13.03;11.73;;;18.20;95.60;;;18.29;89.13;98083.69;5063780;28;21258;-65
2021/06/27 03:46:12;;;;;;;15.20;11.90;;;18.20;95.80;;;18.28;89.54;98078.56;5062627;28;20651;-65
2021/06/27 03:48:40;;;;;;;13.47;12.07;;;18.20;95.80;;;18.29;88.82;98075.78;5067717;28;21007;-65
2021/06/27 03:51:09;;;;;;;14.37;11.20;;;18.20;95.70;;;18.29;89.14;98072.31;5063975;28;20731;-65
2021/06/27 03:53:38;;;;;;;13.33;12.00;;;18.20;95.90;;;18.29;89.37;98075.78;5059017;28;20660;-65
2021/06/27 03:56:06;;;;;;;13.17;10.80;;;18.20;95.90;;;18.32;90.00;98069.38;5063627;28;20645;-65
2021/06/27 03:58:35;;;;;;;14.87;11.00;;;18.20;95.90;;;18.35;89.58;98063.78;5064619;28;20715;-65
2021/06/27 04:01:04;;;;;;;13.80;11.37;;;18.30;96.00;;;18.37;89.58;98054.69;5064543;28;20711;-65
2021/06/27 04:03:35;;;;;;;12.83;11.17;;;18.30;95.90;;;18.40;89.35;98053.56;5064123;28;20721;-65
2021/06/27 04:06:04;;;;;;;13.87;11.87;;;18.30;95.80;;;18.42;89.77;98042.72;5065385;28;20689;-65
2021/06/27 04:08:33;;;;;;;13.70;12.30;;;18.30;95.80;;;18.41;89.36;98036.75;5057956;28;20664;-65
2021/06/27 04:11:02;;;;;;;13.20;11.63;;;18.30;95.80;;;18.41;89.33;98040.22;5061348;28;21091;-65
2021/06/27 04:13:32;;;;;;;12.93;11.53;;;18.30;95.90;;;18.42;89.57;98047.16;5061305;28;20636;-65
2021/06/27 04:16:03;;;;;;;11.40;10.23;;;18.30;95.80;;;18.45;88.62;98054.78;5061339;28;20650;-65
2021/06/27 04:18:35;;;;;;;10.80;9.70;;;18.30;95.40;;;18.59;87.91;98060.31;5064475;28;20691;-65
2021/06/27 04:21:04;;;;;;;11.10;9.57;;;18.40;95.50;;;18.74;87.96;98071.19;5062303;28;20659;-65
2021/06/27 04:23:36;;;;;;;10.97;9.87;;;18.60;95.30;;;18.88;87.52;98084.63;5060830;28;20741;-65
2021/06/27 04:26:06;;;;;;;13.00;10.80;;;18.70;95.40;;;18.97;88.31;98089.84;5061841;28;20691;-65
2021/06/27 04:28:35;;;;;;;11.13;10.03;;;18.80;95.50;;;19.02;87.82;98092.03;5063523;28;20701;-65
2021/06/27 04:31:03;;;;;;;12.23;10.77;;;18.80;95.30;;;19.06;87.45;98096.88;5055721;28;21170;-65
2021/06/27 04:33:33;;;;;;;11.77;10.57;;;18.90;95.00;;;19.11;88.19;98105.16;5062952;28;20658;-65
2021/06/27 04:36:02;;;;;;;12.10;10.83;;;19.00;95.30;;;19.16;87.00;98104.69;5062770;28;21248;-65
2021/06/27 04:38:30;;;;;;;12.00;10.77;;;19.00;94.90;;;19.23;87.70;98110.97;5057566;28;20679;-65
2021/06/27 04:40:59;;;;;;;12.33;11.03;;;19.10;95.40;;;19.23;87.63;98108.34;5059199;28;20685;-65
2021/06/27 04:43:28;;;;;;;12.20;10.50;;;19.10;94.80;;;19.27;86.86;98107.88;5059706;28;20649;-65
2021/06/27 04:45:56;;;;;;;12.37;11.00;;;19.10;95.00;;;19.35;88.24;98118.50;5067004;28;20887;-65
2021/06/27 04:48:25;;;;;;;12.43;11.03;;;19.20;95.20;;;19.43;87.27;98113.25;5064698;28;20643;-65
2021/06/27 04:50:55;;;;;;;11.50;10.30;;;19.30;95.20;;;19.52;87.09;98110.47;5062977;28;20644;-65
2021/06/27 04:53:24;;;;;;;13.40;11.50;;;19.40;95.20;;;19.63;87.89;98110.19;5066906;28;21152;-65
2021/06/27 04:55:52;;;;;;;11.23;10.10;;;19.50;95.00;;;19.74;87.83;98109.91;5066397;28;20639;-65
2021/06/27 04:58:21;;;;;;;12.83;11.43;;;19.60;95.00;;;19.85;87.89;98112.25;5064789;28;20668;-65
2021/06/27 05:00:50;;;;;;;12.77;11.47;;;19.70;94.90;;;19.92;87.33;98118.56;5068716;28;20659;-65
2021/06/27 05:03:21;;;;;;;12.33;11.13;;;19.80;94.80;;;20.00;86.40;98121.25;5063866;28;21084;-65
2021/06/27 05:05:50;;;;;;;11.93;10.73;;;19.80;94.50;;;20.07;85.54;98111.66;5059987;28;20721;-65
2021/06/27 05:08:19;;;;;;;11.47;10.37;;;19.90;94.40;;;20.18;86.47;98121.97;5066004;28;20648;-65
2021/06/27 05:10:48;;;;;;;12.23;10.67;;;20.00;94.50;;;20.26;84.88;98111.38;5069058;28;21252;-65
2021/06/27 05:13:17;;;;;;;12.10;10.90;;;20.10;94.00;;;20.24;84.33;98110.72;5069516;28;20768;-65
2021/06/27 05:15:45;;;;;;;12.63;11.30;;;20.00;93.30;;;20.20;85.20;98112.03;5058910;28;20636;-65
2021/06/27 05:18:14;;;;;;;11.97;10.50;;;20.00;93.30;;;20.22;85.94;98112.69;5061086;28;20649;-65
2021/06/27 05:20:42;;;;;;;12.17;11.07;;;20.10;93.70;;;20.25;84.81;98117.66;5064358;28;20711;-65
2021/06/27 05:23:12;;;;;;;11.00;9.90;;;20.10;93.90;;;20.28;84.50;98118.16;5060578;28;20641;-65
2021/06/27 05:25:42;;;;;;;12.80;11.40;;;20.10;93.80;;;20.33;86.57;98114.03;5061120;28;20993;-65
2021/06/27 05:28:11;;;;;;;11.80;10.70;;;20.20;94.10;;;20.42;86.02;98115.69;5064382;28;21010;-65
2021/06/27 05:30:40;;;;;;;11.40;10.30;;;20.30;94.60;;;20.51;85.34;98108.59;5063129;28;20711;-65
2021/06/27 05:33:09;;;;;;;13.13;10.87;;;20.30;94.00;;;20.55;85.71;98105.44;5066319;28;20679;-65
2021/06/27 05:35:39;;;;;;;11.60;10.40;;;20.40;93.70;;;20.61;84.70;98094.16;5064578;28;20669;-65
2021/06/27 05:38:07;;;;;;;10.80;9.80;;;20.40;93.40;;;20.76;84.00;98103.13;5060554;28;20655;-65
2021/06/27 05:40:36;;;;;;;11.97;10.77;;;20.50;93.50;;;20.92;84.32;98092.50;5061737;28;20703;-65
2021/06/27 05:43:07;;;;;;;11.83;10.57;;;20.70;93.60;;;21.13;83.82;98090.13;5066602;28;21160;-65
2021/06/27 05:45:36;;;;;;;11.13;10.13;;;20.80;93.00;;;21.33;82.52;98079.78;5063017;28;21219;-65
2021/06/27 05:48:06;;;;;;;11.47;10.27;;;21.00;92.70;;;21.47;82.40;98080.91;5063769;28;20835;-65
2021/06/27 05:50:34;;;;;;;10.77;9.77;;;21.20;92.90;;;21.52;82.91;98070.63;5075616;28;20636;-65
2021/06/27 05:53:04;;;;;;;10.97;9.93;;;21.30;93.00;;;21.60;82.93;98070.59;5063245;28;20650;-65
2021/06/27 05:55:33;;;;;;;10.70;9.70;;;21.40;92.90;;;21.66;82.99;98076.00;5065599;28;20686;-65
2021/06/27 05:58:02;;;;;;;11.53;10.33;;;21.40;92.50;;;21.70;82.60;98087.13;5058623;28;20653;-65
2021/06/27 06:00:32;;;;;;;11.40;10.30;;;21.50;92.60;;;21.73;82.96;98077.00;5062041;28;21034;-65
2021/06/27 06:03:01;;;;;;;10.63;9.60;;;21.60;92.90;;;21.71;83.20;98080.81;5059691;28;20693;-65
2021/06/27 06:05:31;;;;;;;11.40;10.27;;;21.60;92.70;;;21.76;83.42;98071.34;5061474;28;20642;-65
2021/06/27 06:07:59;;;;;;;10.53;9.63;;;21.60;92.80;;;21.81;82.09;98072.47;5058857;28;20695;-65
2021/06/27 06:10:28;;;;;;;11.40;10.40;;;21.70;92.20;;;21.96;82.29;98073.34;5058906;28;21017;-65
2021/06/27 06:12:56;;;;;;;10.43;9.43;;;21.80;92.30;;;22.15;81.36;98082.72;5061652;28;21044;-65
2021/06/27 06:15:25;;;;;;;10.67;9.63;;;21.90;91.70;;;22.41;80.45;98084.88;5064417;28;20693;-65
2021/06/27 06:17:55;;;;;;;11.40;10.30;;;22.10;91.40;;;22.58;80.16;98083.75;5062621;28;20748;-65
2021/06/27 06:20:24;;;;;;;10.63;9.70;;;22.30;91.30;;;22.77;80.01;98089.38;5064102;28;20650;-65
2021/06/27 06:22:52;;;;;;;10.40;9.40;;;22.50;91.10;;;23.02;79.84;98076.69;5058289;28;21268;-65
2021/06/27 06:25:21;;;;;;;10.70;9.70;;;22.70;91.20;;;23.23;80.46;98081.13;5065250;28;20695;-66
2021/06/27 06:27:49;;;;;;;10.43;9.40;;;22.90;91.30;;;23.43;78.42;98078.75;5067793;28;21177;-65
2021/06/27 06:30:19;;;;;;;9.77;8.87;;;23.10;90.20;;;23.75;77.25;98081.84;5058624;28;20641;-65
2021/06/27 06:32:47;;;;;;;9.40;8.60;;;23.40;90.00;;;23.99;77.10;98094.84;5059384;28;21081;-65
2021/06/27 06:35:19;;;;;;;9.90;9.00;;;23.60;88.70;;;24.25;75.54;98094.13;5068047;28;21072;-65
2021/06/27 06:37:48;;;;;;;9.37;8.47;;;23.80;87.50;;;24.52;76.53;98097.91;5066258;28;20698;-65
2021/06/27 06:40:16;;;;;;;9.30;8.50;;;24.10;88.50;;;24.61;74.89;98097.59;5061044;28;21183;-65
2021/06/27 06:42:45;;;;;;;8.90;8.00;;;24.30;86.20;;;24.64;74.57;98103.38;5067286;28;20694;-65
2021/06/27 06:45:14;;;;;;;8.80;8.00;;;24.30;85.60;;;24.98;73.68;98091.97;5043406;28;20637;-66
2021/06/27 06:47:43;;;;;;;8.50;7.67;;;24.60;84.10;;;25.34;72.02;98086.28;5058518;28;20665;-66
2021/06/27 06:50:12;;;;;;;8.57;7.77;;;24.90;81.80;;;25.61;70.52;98088.09;5061822;28;20638;-66
2021/06/27 06:52:42;;;;;;;8.83;8.03;;;25.20;79.90;;;26.13;71.48;98094.47;5061245;28;20759;-66
2021/06/27 06:55:12;;;;;;;8.20;7.27;;;25.60;81.30;;;26.77;69.22;98096.50;5065677;28;20639;-66
2021/06/27 06:57:41;;;;;;;8.27;7.57;;;26.10;79.40;;;27.25;67.51;98098.78;5077008;28;21189;-66
2021/06/27 07:00:11;;;;;;;7.00;6.40;;;26.60;76.70;;;27.34;64.51;98100.22;5061759;28;20696;-66
2021/06/27 07:02:41;;;;;;;8.60;7.87;;;26.80;71.80;;;27.51;64.57;98098.75;5058599;28;20705;-66
2021/06/27 07:05:11;;;;;;;7.80;7.10;;;27.00;70.40;;;27.57;65.04;98094.22;5058648;28;21223;-67
2021/06/27 07:07:42;;;;;;;7.20;6.60;;;27.20;70.80;;;27.65;65.23;98090.50;5058197;28;22190;-66
2021/06/27 07:10:12;;;;;;;7.03;6.43;;;27.20;70.70;;;27.84;64.15;98098.44;5067045;28;20624;-66
2021/06/27 07:12:41;;;;;;;6.77;6.20;;;27.40;69.40;;;27.99;62.68;98093.63;5068803;28;20621;-66
2021/06/27 07:15:11;;;;;;;8.10;7.40;;;27.50;68.10;;;28.05;64.18;98090.94;5061501;28;20634;-66
2021/06/27 07:17:40;;;;;;;7.53;6.93;;;27.60;69.60;;;27.92;62.84;98095.53;5063974;28;20716;-66
2021/06/27 07:20:11;;;;;;;7.70;7.00;;;27.60;66.80;;;27.97;64.12;98087.69;5064371;28;20623;-66
2021/06/27 07:22:41;;;;;;;6.90;6.30;;;27.60;67.10;;;27.74;63.26;98084.69;5061932;28;20643;-66
2021/06/27 07:25:12;;;;;;;7.70;7.00;;;27.50;66.90;;;27.47;65.61;98081.41;5061779;28;20635;-66
2021/06/27 07:27:40;;;;;;;7.63;6.93;;;27.30;68.70;;;27.29;67.13;98073.19;5061653;28;20674;-66
2021/06/27 07:30:11;;;;;;;7.47;6.80;;;27.10;71.60;;;27.23;66.83;98071.38;5065395;28;21197;-66
2021/06/27 07:32:39;;;;;;;6.73;6.23;;;27.00;71.60;;;27.47;67.31;98070.69;5064513;28;20689;-66
2021/06/27 07:35:09;;;;;;;7.80;7.10;;;27.20;71.50;;;28.00;65.47;98079.19;5064772;28;20691;-66
2021/06/27 07:37:46;;;;;;;8.13;7.43;;;27.50;71.00;;;28.40;65.34;98086.03;5061043;28;20643;-66
2021/06/27 07:40:17;;;;;;;7.23;6.63;;;27.90;70.50;;;28.50;63.72;98081.81;5062304;28;20630;-66
2021/06/27 07:42:45;;;;;;;7.67;7.07;;;28.10;67.30;;;28.60;62.43;98080.31;5063479;28;20640;-66
2021/06/27 07:45:15;;;;;;;9.03;7.43;;;28.20;65.90;;;28.99;64.42;98066.59;5062153;28;20661;-66
2021/06/27 07:47:44;;;;;;;7.70;7.00;;;28.50;68.20;;;29.25;63.04;98069.91;5061190;28;20678;-66
2021/06/27 07:50:14;;;;;;;8.83;8.03;;;28.70;67.10;;;29.52;62.17;98076.66;5068675;28;20643;-66
2021/06/27 07:52:42;;;;;;;8.20;7.40;;;29.00;65.20;;;29.62;63.39;98075.09;5064479;28;21166;-66
2021/06/27 07:55:13;;;;;;;7.70;7.10;;;29.10;66.30;;;29.90;62.60;98070.00;5073389;28;21185;-66
2021/06/27 07:57:42;;;;;;;7.60;6.90;;;29.40;66.00;;;29.66;61.86;98070.88;5064928;28;20637;-66
2021/06/27 08:00:12;;;;;;;7.10;6.60;;;29.30;63.80;;;29.28;61.91;98068.63;5053695;28;21186;-69
2021/06/27 08:02:42;;;;;;;7.87;7.10;;;29.00;63.80;;;29.11;64.68;98076.41;5057022;28;20648;-67
2021/06/27 08:05:12;;;;;;;7.70;7.10;;;28.80;67.20;;;29.23;64.71;98065.78;5059890;28;20619;-67
2021/06/27 08:07:41;;;;;;;7.60;7.00;;;28.90;67.10;;;29.43;64.41;98071.78;5064881;28;21295;-67
2021/06/27 08:10:13;;;;;;;7.53;6.93;;;29.10;67.70;;;29.77;64.04;98074.69;5060905;28;20646;-67
2021/06/27 08:12:42;;;;;;;6.80;6.30;;;29.40;67.20;;;30.09;61.65;98075.16;5057421;28;20670;-66
2021/06/27 08:15:18;;;;;;;6.97;6.47;;;29.60;63.60;;;30.29;60.69;98067.63;5051928;28;20643;-66
2021/06/27 08:17:47;;;;;;;7.10;6.50;;;29.80;63.40;;;30.36;60.21;98070.28;5062126;28;20643;-66
2021/06/27 08:20:19;;;;;;;8.83;6.50;;;29.90;61.80;;;30.50;60.55;98067.16;5063587;28;20723;-66
2021/06/27 08:22:48;;;;;;;7.17;6.57;;;30.00;62.00;;;30.62;61.27;98057.22;5064482;28;20674;-67
2021/06/27 08:25:19;;;;;;;6.50;6.00;;;30.20;62.90;;;30.67;62.14;98060.88;5064627;28;21177;-67
2021/06/27 08:27:49;;;;;;;7.33;6.73;;;30.30;63.80;;;30.69;61.91;98063.34;5080001;28;20627;-67
2021/06/27 08:30:22;;;;;;;5.50;5.10;;;30.30;64.00;;;30.62;57.52;98063.44;5065929;28;20635;-67
2021/06/27 08:32:51;;;;;;;7.10;5.50;;;30.30;57.70;;;30.64;57.96;98057.81;5062977;28;20619;-67
2021/06/27 08:35:22;;;;;;;5.30;4.90;;;30.30;57.90;;;30.76;56.63;98058.66;5061102;28;20687;-66
2021/06/27 08:37:52;;;;;;;5.20;4.80;;;30.30;56.70;;;30.90;56.13;98060.09;5064170;28;20647;-66
2021/06/27 08:40:24;;;;;;;5.90;5.40;;;30.50;56.20;;;30.96;55.97;98054.63;5065733;28;20624;-67
2021/06/27 08:42:54;;;;;;;4.67;4.27;;;30.50;55.40;;;30.95;55.87;98051.09;5080074;28;20688;-66
2021/06/27 08:45:23;;;;;;;5.20;4.80;;;30.60;55.00;;;30.83;56.09;98054.00;5054190;28;21206;-66
2021/06/27 08:47:55;;;;;;;5.20;4.70;;;30.50;55.00;;;30.74;55.55;98052.69;5066067;28;20991;-66
2021/06/27 08:50:24;;;;;;;4.63;4.33;;;30.50;54.50;;;30.69;56.07;98053.38;5065958;28;20707;-66
2021/06/27 08:52:53;;;;;;;5.17;4.77;;;30.40;54.90;;;30.91;57.38;98042.88;5065099;28;20723;-66
2021/06/27 08:55:23;;;;;;;4.70;4.40;;;30.50;57.10;;;31.04;56.45;98049.69;5063888;28;20659;-65
2021/06/27 08:57:53;;;;;;;4.83;4.43;;;30.70;55.60;;;31.08;55.02;98064.34;5064280;28;20630;-65
2021/06/27 09:00:21;;;;;;;5.00;4.60;;;30.70;53.60;;;31.08;56.68;98053.56;5068699;28;20631;-65
2021/06/27 09:02:50;;;;;;;4.83;4.43;;;30.80;55.10;;;31.06;55.43;98054.84;5067960;28;20659;-65
2021/06/27 09:05:21;;;;;;;4.93;4.53;;;30.70;54.20;;;31.19;54.46;98060.84;5064428;28;20643;-65
2021/06/27 09:07:50;;;;;;;5.17;4.77;;;30.80;54.20;;;31.15;55.08;98048.91;5071535;28;20745;-66
2021/06/27 09:10:27;;;;;;;4.97;4.57;;;30.80;53.60;;;31.21;54.60;98047.94;5074417;28;20628;-66
2021/06/27 09:12:58;;;;;;;5.37;4.97;;;30.80;54.20;;;31.30;57.91;98043.00;5069432;28;20636;-66
2021/06/27 09:15:43;;;;;;;4.93;4.53;;;30.90;56.50;;;31.20;55.52;98034.69;5069207;28;20762;-66
2021/06/27 09:18:25;;;;;;;4.87;4.47;;;30.90;53.50;;;31.15;55.49;98030.03;5066255;28;21219;-66
2021/06/27 09:20:56;;;;;;;5.13;4.57;;;30.80;53.60;;;31.19;55.68;98036.56;5069206;28;20628;-66
2021/06/27 09:23:38;;;;;;;4.60;4.30;;;30.90;53.90;;;31.19;55.27;98044.66;5060192;28;21093;-66
2021/06/27 09:26:09;;;;;;;5.40;4.90;;;30.90;54.10;;;31.17;53.76;98048.66;5067512;28;20677;-66
2021/06/27 09:28:47;;;;;;;5.47;4.97;;;30.90;52.10;;;31.18;54.70;98048.41;5064348;28;20631;-66
2021/06/27 09:31:41;;;;;;;4.83;4.50;;;30.80;53.70;;;31.20;54.81;98046.31;5060234;28;21020;-66
2021/06/27 09:34:13;;;;;;;4.60;4.30;;;30.90;53.50;;;31.14;54.84;98033.75;5064616;28;21031;-66
2021/06/27 09:36:51;;;;;;;5.10;4.70;;;30.80;52.30;;;31.23;56.61;98031.50;5067889;28;20711;-66
2021/06/27 09:39:20;;;;;;;4.80;4.40;;;30.90;54.00;;;31.05;53.62;98027.06;5066304;28;20678;-66
2021/06/27 09:41:53;;;;;;;5.10;4.60;;;30.80;51.70;;;30.94;54.64;98024.38;5070647;28;20672;-66
2021/06/27 09:44:23;;;;;;;4.60;4.20;;;30.70;51.40;;;30.81;53.98;98026.44;5064050;28;20662;-66
2021/06/27 09:46:54;;;;;;;4.63;4.23;;;30.50;51.20;;;30.71;54.43;98021.63;5061986;28;20717;-66
2021/06/27 09:49:33;;;;;;;4.07;3.77;;;30.50;51.60;;;30.52;55.20;98022.78;5071017;28;20678;-66
2021/06/27 09:52:06;;;;;;;4.67;4.37;;;30.30;52.20;;;30.57;54.58;98027.47;5070313;28;21154;-66
2021/06/27 09:54:37;;;;;;;4.83;4.43;;;30.30;52.30;;;30.67;55.35;98008.84;5066430;28;20671;-66
2021/06/27 09:57:08;;;;;;;4.60;4.30;;;30.40;53.60;;;30.60;55.23;98011.66;5066590;28;20655;-66
2021/06/27 09:59:41;;;;;;;4.07;3.77;;;30.30;53.00;;;30.64;55.34;98018.22;5065393;28;20631;-66
2021/06/27 10:02:10;;;;;;;4.70;4.23;;;30.30;52.80;;;30.80;55.22;98014.03;5067643;28;20619;-66
2021/06/27 10:04:41;;;;;;;4.15;3.85;;;30.40;53.00;;;30.81;53.84;98008.41;5065165;28;21355;-66
2021/06/27 10:07:12;;;;;;;4.00;3.70;;;30.40;51.70;;;30.87;52.96;98014.72;5067342;28;20229;-66
2021/06/27 10:09:42;;;;;;;4.43;4.03;;;30.50;51.90;;;30.73;54.94;98000.66;5067334;28;20635;-66
2021/06/27 10:12:16;;;;;;;4.20;3.90;;;30.50;51.90;;;30.73;55.38;98000.66;5064960;28;20623;-65
2021/06/27 10:14:58;;;;;;;4.57;4.17;;;30.40;52.80;;;30.49;53.17;98006.22;5068797;28;20620;-65
2021/06/27 10:17:29;;;;;;;4.07;3.77;;;30.30;51.20;;;30.41;54.30;98006.56;5068668;28;20681;-66
2021/06/27 10:19:58;;;;;;;4.50;4.10;;;30.10;51.40;;;30.42;53.13;98014.41;5067360;28;20655;-66
2021/06/27 10:22:27;;;;;;;4.07;3.77;;;30.10;51.80;;;30.49;53.63;98014.31;5061797;28;20643;-66
2021/06/27 10:24:56;;;;;;;4.67;4.27;;;30.10;51.10;;;30.72;55.37;98014.38;5065394;28;20667;-66